sensor_id;sensor_type;location;lat;lon;timestamp;P1;durP1;ratioP1;P2;durP2;ratioP2
12631;SDS011;6381;45.748;12.106;2022-10-16T00:01:50;91.28;;;66.95;;
12631;SDS011;6381;45.748;12.106;2022-10-16T00:04:20;87.85;;;67.30;;
12631;SDS011;6381;45.748;12.106;2022-10-16T00:06:49;88.85;;;66.07;;
12631;SDS011;6381;45.748;12.106;2022-10-16T00:09:18;87.07;;;68.20;;
12631;SDS011;6381;45.748;12.106;2022-10-16T00:11:48;90.20;;;67.82;;
12631;SDS011;6381;45.748;12.106;2022-10-16T00:14:17;82.97;;;65.78;;
12631;SDS011;6381;45.748;12.106;2022-10-16T00:16:47;93.70;;;69.95;;
12631;SDS011;6381;45.748;12.106;2022-10-16T00:19:16;86.50;;;67.35;;
12631;SDS011;6381;45.748;12.106;2022-10-16T00:21:45;92.93;;;68.95;;
12631;SDS011;6381;45.748;12.106;2022-10-16T00:24:14;86.03;;;67.68;;
12631;SDS011;6381;45.748;12.106;2022-10-16T00:26:43;89.47;;;69.55;;
12631;SDS011;6381;45.748;12.106;2022-10-16T00:29:14;89.38;;;69.13;;
12631;SDS011;6381;45.748;12.106;2022-10-16T00:31:43;85.80;;;70.57;;
12631;SDS011;6381;45.748;12.106;2022-10-16T00:34:12;92.82;;;71.80;;
12631;SDS011;6381;45.748;12.106;2022-10-16T00:36:41;87.95;;;68.30;;
12631;SDS011;6381;45.748;12.106;2022-10-16T00:39:10;81.70;;;65.30;;
12631;SDS011;6381;45.748;12.106;2022-10-16T00:41:39;78.25;;;64.07;;
12631;SDS011;6381;45.748;12.106;2022-10-16T00:47:20;78.10;;;61.60;;
12631;SDS011;6381;45.748;12.106;2022-10-16T00:49:53;80.10;;;63.35;;
12631;SDS011;6381;45.748;12.106;2022-10-16T00:52:29;84.82;;;64.82;;
12631;SDS011;6381;45.748;12.106;2022-10-16T00:54:59;82.35;;;64.72;;
12631;SDS011;6381;45.748;12.106;2022-10-16T00:57:30;81.78;;;63.97;;
12631;SDS011;6381;45.748;12.106;2022-10-16T01:00:01;81.57;;;63.63;;
12631;SDS011;6381;45.748;12.106;2022-10-16T01:02:32;85.65;;;67.88;;
12631;SDS011;6381;45.748;12.106;2022-10-16T01:05:01;84.82;;;65.05;;
12631;SDS011;6381;45.748;12.106;2022-10-16T01:07:34;80.05;;;64.55;;
12631;SDS011;6381;45.748;12.106;2022-10-16T01:10:11;79.28;;;63.42;;
12631;SDS011;6381;45.748;12.106;2022-10-16T01:12:47;79.35;;;63.83;;
12631;SDS011;6381;45.748;12.106;2022-10-16T01:15:24;79.22;;;62.05;;
12631;SDS011;6381;45.748;12.106;2022-10-16T01:17:57;75.68;;;61.22;;
12631;SDS011;6381;45.748;12.106;2022-10-16T01:20:31;74.97;;;61.72;;
12631;SDS011;6381;45.748;12.106;2022-10-16T01:23:06;72.60;;;59.28;;
12631;SDS011;6381;45.748;12.106;2022-10-16T01:25:49;73.03;;;60.85;;
12631;SDS011;6381;45.748;12.106;2022-10-16T01:28:30;74.60;;;59.63;;
12631;SDS011;6381;45.748;12.106;2022-10-16T01:31:02;69.63;;;58.65;;
12631;SDS011;6381;45.748;12.106;2022-10-16T01:33:34;71.57;;;59.70;;
12631;SDS011;6381;45.748;12.106;2022-10-16T01:36:07;70.70;;;60.20;;
12631;SDS011;6381;45.748;12.106;2022-10-16T01:38:41;66.03;;;58.80;;
12631;SDS011;6381;45.748;12.106;2022-10-16T01:41:15;69.10;;;60.05;;
12631;SDS011;6381;45.748;12.106;2022-10-16T01:43:49;70.57;;;61.22;;
12631;SDS011;6381;45.748;12.106;2022-10-16T01:46:22;71.60;;;63.65;;
12631;SDS011;6381;45.748;12.106;2022-10-16T01:48:52;77.03;;;62.92;;
12631;SDS011;6381;45.748;12.106;2022-10-16T01:51:23;72.72;;;62.22;;
12631;SDS011;6381;45.748;12.106;2022-10-16T01:53:55;70.20;;;61.35;;
12631;SDS011;6381;45.748;12.106;2022-10-16T01:56:28;70.68;;;62.55;;
12631;SDS011;6381;45.748;12.106;2022-10-16T01:59:00;69.07;;;60.50;;
12631;SDS011;6381;45.748;12.106;2022-10-16T02:01:34;72.18;;;60.75;;
12631;SDS011;6381;45.748;12.106;2022-10-16T02:04:07;71.47;;;63.00;;
12631;SDS011;6381;45.748;12.106;2022-10-16T02:06:39;73.10;;;64.15;;
12631;SDS011;6381;45.748;12.106;2022-10-16T02:09:09;73.43;;;64.25;;
12631;SDS011;6381;45.748;12.106;2022-10-16T02:11:38;71.10;;;63.30;;
12631;SDS011;6381;45.748;12.106;2022-10-16T02:14:09;76.10;;;64.07;;
12631;SDS011;6381;45.748;12.106;2022-10-16T02:16:40;74.15;;;64.57;;
12631;SDS011;6381;45.748;12.106;2022-10-16T02:19:13;74.65;;;63.35;;
12631;SDS011;6381;45.748;12.106;2022-10-16T02:21:46;77.53;;;66.93;;
12631;SDS011;6381;45.748;12.106;2022-10-16T02:24:22;78.13;;;67.70;;
12631;SDS011;6381;45.748;12.106;2022-10-16T02:26:57;84.85;;;68.53;;
12631;SDS011;6381;45.748;12.106;2022-10-16T02:29:33;73.47;;;62.95;;
12631;SDS011;6381;45.748;12.106;2022-10-16T02:32:07;72.25;;;63.05;;
12631;SDS011;6381;45.748;12.106;2022-10-16T02:34:38;81.18;;;66.97;;
12631;SDS011;6381;45.748;12.106;2022-10-16T02:37:08;74.68;;;66.15;;
12631;SDS011;6381;45.748;12.106;2022-10-16T02:39:38;80.28;;;65.82;;
12631;SDS011;6381;45.748;12.106;2022-10-16T02:42:09;76.13;;;64.47;;
12631;SDS011;6381;45.748;12.106;2022-10-16T02:44:41;75.22;;;62.80;;
12631;SDS011;6381;45.748;12.106;2022-10-16T02:47:10;80.13;;;67.18;;
12631;SDS011;6381;45.748;12.106;2022-10-16T02:49:39;80.35;;;66.00;;
12631;SDS011;6381;45.748;12.106;2022-10-16T02:52:08;79.82;;;65.68;;
12631;SDS011;6381;45.748;12.106;2022-10-16T02:54:37;81.35;;;63.50;;
12631;SDS011;6381;45.748;12.106;2022-10-16T02:57:07;74.25;;;63.30;;
12631;SDS011;6381;45.748;12.106;2022-10-16T02:59:36;76.50;;;65.75;;
12631;SDS011;6381;45.748;12.106;2022-10-16T03:02:06;78.30;;;66.53;;
12631;SDS011;6381;45.748;12.106;2022-10-16T03:04:35;75.65;;;62.65;;
12631;SDS011;6381;45.748;12.106;2022-10-16T03:07:05;74.80;;;64.68;;
12631;SDS011;6381;45.748;12.106;2022-10-16T03:09:34;72.10;;;61.60;;
12631;SDS011;6381;45.748;12.106;2022-10-16T03:12:03;72.47;;;62.17;;
12631;SDS011;6381;45.748;12.106;2022-10-16T03:14:33;72.63;;;63.22;;
12631;SDS011;6381;45.748;12.106;2022-10-16T03:17:02;74.00;;;63.63;;
12631;SDS011;6381;45.748;12.106;2022-10-16T03:19:32;74.25;;;62.58;;
12631;SDS011;6381;45.748;12.106;2022-10-16T03:22:02;73.55;;;61.30;;
12631;SDS011;6381;45.748;12.106;2022-10-16T03:24:31;74.47;;;63.70;;
12631;SDS011;6381;45.748;12.106;2022-10-16T03:27:00;79.88;;;63.88;;
12631;SDS011;6381;45.748;12.106;2022-10-16T03:29:30;70.95;;;61.67;;
12631;SDS011;6381;45.748;12.106;2022-10-16T03:31:59;70.10;;;61.63;;
12631;SDS011;6381;45.748;12.106;2022-10-16T03:34:29;68.93;;;60.60;;
12631;SDS011;6381;45.748;12.106;2022-10-16T03:37:00;70.63;;;60.83;;
12631;SDS011;6381;45.748;12.106;2022-10-16T03:39:29;75.95;;;63.88;;
12631;SDS011;6381;45.748;12.106;2022-10-16T03:41:58;69.25;;;60.40;;
12631;SDS011;6381;45.748;12.106;2022-10-16T03:44:27;72.38;;;60.08;;
12631;SDS011;6381;45.748;12.106;2022-10-16T03:46:56;72.07;;;60.80;;
12631;SDS011;6381;45.748;12.106;2022-10-16T03:49:25;73.72;;;62.60;;
12631;SDS011;6381;45.748;12.106;2022-10-16T03:51:54;70.93;;;61.60;;
12631;SDS011;6381;45.748;12.106;2022-10-16T03:54:25;68.47;;;60.83;;
12631;SDS011;6381;45.748;12.106;2022-10-16T03:56:54;70.18;;;61.22;;
12631;SDS011;6381;45.748;12.106;2022-10-16T03:59:23;73.82;;;61.42;;
12631;SDS011;6381;45.748;12.106;2022-10-16T04:01:52;71.78;;;60.00;;
12631;SDS011;6381;45.748;12.106;2022-10-16T04:04:22;72.38;;;60.75;;
12631;SDS011;6381;45.748;12.106;2022-10-16T04:06:52;70.30;;;60.97;;
12631;SDS011;6381;45.748;12.106;2022-10-16T04:09:21;69.40;;;59.15;;
12631;SDS011;6381;45.748;12.106;2022-10-16T04:11:52;69.80;;;59.67;;
12631;SDS011;6381;45.748;12.106;2022-10-16T04:14:21;69.72;;;62.08;;
12631;SDS011;6381;45.748;12.106;2022-10-16T04:16:51;71.22;;;60.60;;
12631;SDS011;6381;45.748;12.106;2022-10-16T04:19:20;74.57;;;62.92;;
12631;SDS011;6381;45.748;12.106;2022-10-16T04:21:49;68.03;;;59.08;;
12631;SDS011;6381;45.748;12.106;2022-10-16T04:24:19;69.47;;;60.10;;
12631;SDS011;6381;45.748;12.106;2022-10-16T04:26:48;70.05;;;60.80;;
12631;SDS011;6381;45.748;12.106;2022-10-16T04:29:18;68.95;;;60.58;;
12631;SDS011;6381;45.748;12.106;2022-10-16T04:31:47;69.45;;;61.63;;
12631;SDS011;6381;45.748;12.106;2022-10-16T04:34:16;72.35;;;60.80;;
12631;SDS011;6381;45.748;12.106;2022-10-16T04:36:46;67.70;;;59.88;;
12631;SDS011;6381;45.748;12.106;2022-10-16T04:39:16;69.85;;;60.53;;
12631;SDS011;6381;45.748;12.106;2022-10-16T04:41:46;67.15;;;59.75;;
12631;SDS011;6381;45.748;12.106;2022-10-16T04:44:15;67.03;;;58.97;;
12631;SDS011;6381;45.748;12.106;2022-10-16T04:46:46;69.70;;;61.13;;
12631;SDS011;6381;45.748;12.106;2022-10-16T04:49:15;68.22;;;58.67;;
12631;SDS011;6381;45.748;12.106;2022-10-16T04:51:45;68.40;;;59.75;;
12631;SDS011;6381;45.748;12.106;2022-10-16T04:54:14;66.88;;;57.80;;
12631;SDS011;6381;45.748;12.106;2022-10-16T04:56:43;69.07;;;58.45;;
12631;SDS011;6381;45.748;12.106;2022-10-16T04:59:14;64.80;;;57.72;;
12631;SDS011;6381;45.748;12.106;2022-10-16T05:01:43;68.15;;;57.20;;
12631;SDS011;6381;45.748;12.106;2022-10-16T05:04:14;65.13;;;57.40;;
12631;SDS011;6381;45.748;12.106;2022-10-16T05:06:43;65.90;;;57.22;;
12631;SDS011;6381;45.748;12.106;2022-10-16T05:09:12;67.18;;;58.85;;
12631;SDS011;6381;45.748;12.106;2022-10-16T05:11:42;66.63;;;56.90;;
12631;SDS011;6381;45.748;12.106;2022-10-16T05:14:11;66.93;;;57.42;;
12631;SDS011;6381;45.748;12.106;2022-10-16T05:16:40;68.40;;;59.17;;
12631;SDS011;6381;45.748;12.106;2022-10-16T05:19:11;64.18;;;57.17;;
12631;SDS011;6381;45.748;12.106;2022-10-16T05:21:55;69.13;;;56.90;;
12631;SDS011;6381;45.748;12.106;2022-10-16T05:24:24;63.33;;;55.47;;
12631;SDS011;6381;45.748;12.106;2022-10-16T05:26:54;69.57;;;57.58;;
12631;SDS011;6381;45.748;12.106;2022-10-16T05:29:23;64.50;;;56.53;;
12631;SDS011;6381;45.748;12.106;2022-10-16T05:31:53;60.60;;;53.55;;
12631;SDS011;6381;45.748;12.106;2022-10-16T05:34:23;64.27;;;56.00;;
12631;SDS011;6381;45.748;12.106;2022-10-16T05:36:52;64.20;;;55.20;;
12631;SDS011;6381;45.748;12.106;2022-10-16T05:39:22;63.67;;;54.83;;
12631;SDS011;6381;45.748;12.106;2022-10-16T05:41:51;62.15;;;55.05;;
12631;SDS011;6381;45.748;12.106;2022-10-16T05:44:20;61.15;;;54.05;;
12631;SDS011;6381;45.748;12.106;2022-10-16T05:46:49;65.20;;;56.92;;
12631;SDS011;6381;45.748;12.106;2022-10-16T05:49:18;61.25;;;54.53;;
12631;SDS011;6381;45.748;12.106;2022-10-16T05:51:49;64.35;;;56.60;;
12631;SDS011;6381;45.748;12.106;2022-10-16T05:54:18;62.50;;;54.15;;
12631;SDS011;6381;45.748;12.106;2022-10-16T05:56:47;62.40;;;54.35;;
12631;SDS011;6381;45.748;12.106;2022-10-16T05:59:16;59.67;;;52.28;;
12631;SDS011;6381;45.748;12.106;2022-10-16T06:01:45;62.35;;;55.30;;
12631;SDS011;6381;45.748;12.106;2022-10-16T06:04:14;59.90;;;53.33;;
12631;SDS011;6381;45.748;12.106;2022-10-16T06:06:43;61.92;;;54.95;;
12631;SDS011;6381;45.748;12.106;2022-10-16T06:09:14;59.25;;;52.88;;
12631;SDS011;6381;45.748;12.106;2022-10-16T06:11:43;63.60;;;55.10;;
12631;SDS011;6381;45.748;12.106;2022-10-16T06:14:12;63.20;;;55.53;;
12631;SDS011;6381;45.748;12.106;2022-10-16T06:16:42;64.60;;;55.97;;
12631;SDS011;6381;45.748;12.106;2022-10-16T06:19:11;61.83;;;55.08;;
12631;SDS011;6381;45.748;12.106;2022-10-16T06:21:40;62.80;;;55.97;;
12631;SDS011;6381;45.748;12.106;2022-10-16T06:24:09;63.33;;;56.42;;
12631;SDS011;6381;45.748;12.106;2022-10-16T06:26:40;62.58;;;54.58;;
12631;SDS011;6381;45.748;12.106;2022-10-16T06:29:09;63.78;;;55.13;;
12631;SDS011;6381;45.748;12.106;2022-10-16T06:31:40;70.55;;;57.03;;
12631;SDS011;6381;45.748;12.106;2022-10-16T06:34:10;63.95;;;56.88;;
12631;SDS011;6381;45.748;12.106;2022-10-16T06:36:39;68.55;;;57.00;;
12631;SDS011;6381;45.748;12.106;2022-10-16T06:39:10;69.90;;;55.38;;
12631;SDS011;6381;45.748;12.106;2022-10-16T06:41:41;64.13;;;56.33;;
12631;SDS011;6381;45.748;12.106;2022-10-16T06:44:14;67.57;;;56.70;;
12631;SDS011;6381;45.748;12.106;2022-10-16T06:46:44;63.13;;;56.20;;
12631;SDS011;6381;45.748;12.106;2022-10-16T06:49:13;65.53;;;56.13;;
12631;SDS011;6381;45.748;12.106;2022-10-16T06:51:48;63.42;;;56.28;;
12631;SDS011;6381;45.748;12.106;2022-10-16T06:54:17;64.25;;;55.22;;
12631;SDS011;6381;45.748;12.106;2022-10-16T06:56:48;61.90;;;54.60;;
12631;SDS011;6381;45.748;12.106;2022-10-16T06:59:20;65.15;;;55.75;;
12631;SDS011;6381;45.748;12.106;2022-10-16T07:01:50;63.35;;;54.95;;
12631;SDS011;6381;45.748;12.106;2022-10-16T07:04:19;62.25;;;54.42;;
12631;SDS011;6381;45.748;12.106;2022-10-16T07:06:48;64.63;;;57.60;;
12631;SDS011;6381;45.748;12.106;2022-10-16T07:09:18;62.63;;;55.80;;
12631;SDS011;6381;45.748;12.106;2022-10-16T07:11:48;63.65;;;56.75;;
12631;SDS011;6381;45.748;12.106;2022-10-16T07:14:18;65.65;;;56.75;;
12631;SDS011;6381;45.748;12.106;2022-10-16T07:16:48;62.60;;;55.58;;
12631;SDS011;6381;45.748;12.106;2022-10-16T07:19:17;65.28;;;55.95;;
12631;SDS011;6381;45.748;12.106;2022-10-16T07:21:46;63.28;;;55.63;;
12631;SDS011;6381;45.748;12.106;2022-10-16T07:24:16;64.68;;;56.40;;
12631;SDS011;6381;45.748;12.106;2022-10-16T07:26:45;61.08;;;54.45;;
12631;SDS011;6381;45.748;12.106;2022-10-16T07:29:16;64.20;;;56.92;;
12631;SDS011;6381;45.748;12.106;2022-10-16T07:31:47;67.28;;;58.78;;
12631;SDS011;6381;45.748;12.106;2022-10-16T07:34:17;67.93;;;58.15;;
12631;SDS011;6381;45.748;12.106;2022-10-16T07:36:48;64.82;;;55.17;;
12631;SDS011;6381;45.748;12.106;2022-10-16T07:39:18;60.03;;;52.67;;
12631;SDS011;6381;45.748;12.106;2022-10-16T07:41:47;65.75;;;56.38;;
12631;SDS011;6381;45.748;12.106;2022-10-16T07:44:18;67.78;;;55.53;;
12631;SDS011;6381;45.748;12.106;2022-10-16T07:46:48;63.78;;;56.78;;
12631;SDS011;6381;45.748;12.106;2022-10-16T07:49:17;61.70;;;54.95;;
12631;SDS011;6381;45.748;12.106;2022-10-16T07:51:46;69.63;;;58.38;;
12631;SDS011;6381;45.748;12.106;2022-10-16T07:54:15;69.25;;;59.03;;
12631;SDS011;6381;45.748;12.106;2022-10-16T07:56:44;67.50;;;56.15;;
12631;SDS011;6381;45.748;12.106;2022-10-16T07:59:13;60.80;;;53.92;;
12631;SDS011;6381;45.748;12.106;2022-10-16T08:01:44;64.28;;;57.25;;
12631;SDS011;6381;45.748;12.106;2022-10-16T08:04:13;63.28;;;55.63;;
12631;SDS011;6381;45.748;12.106;2022-10-16T08:06:42;65.00;;;55.85;;
12631;SDS011;6381;45.748;12.106;2022-10-16T08:09:11;64.30;;;55.60;;
12631;SDS011;6381;45.748;12.106;2022-10-16T08:11:41;66.45;;;57.05;;
12631;SDS011;6381;45.748;12.106;2022-10-16T08:14:10;68.28;;;56.78;;
12631;SDS011;6381;45.748;12.106;2022-10-16T08:16:39;62.65;;;55.75;;
12631;SDS011;6381;45.748;12.106;2022-10-16T08:19:09;62.92;;;55.50;;
12631;SDS011;6381;45.748;12.106;2022-10-16T08:21:38;61.25;;;54.55;;
12631;SDS011;6381;45.748;12.106;2022-10-16T08:24:08;62.40;;;52.67;;
12631;SDS011;6381;45.748;12.106;2022-10-16T08:26:37;60.30;;;53.67;;
12631;SDS011;6381;45.748;12.106;2022-10-16T08:29:06;61.03;;;54.00;;
12631;SDS011;6381;45.748;12.106;2022-10-16T08:31:35;62.88;;;56.05;;
12631;SDS011;6381;45.748;12.106;2022-10-16T08:34:04;62.75;;;54.92;;
12631;SDS011;6381;45.748;12.106;2022-10-16T08:36:35;61.55;;;54.38;;
12631;SDS011;6381;45.748;12.106;2022-10-16T08:39:04;68.43;;;57.38;;
12631;SDS011;6381;45.748;12.106;2022-10-16T08:41:48;65.18;;;56.45;;
12631;SDS011;6381;45.748;12.106;2022-10-16T08:44:55;67.38;;;58.28;;
12631;SDS011;6381;45.748;12.106;2022-10-16T08:47:49;67.03;;;58.50;;
12631;SDS011;6381;45.748;12.106;2022-10-16T08:50:29;71.18;;;57.92;;
12631;SDS011;6381;45.748;12.106;2022-10-16T08:53:01;65.90;;;55.78;;
12631;SDS011;6381;45.748;12.106;2022-10-16T08:55:33;66.13;;;58.13;;
12631;SDS011;6381;45.748;12.106;2022-10-16T08:58:10;65.32;;;56.13;;
12631;SDS011;6381;45.748;12.106;2022-10-16T09:00:41;71.88;;;56.85;;
12631;SDS011;6381;45.748;12.106;2022-10-16T09:03:16;71.38;;;58.22;;
12631;SDS011;6381;45.748;12.106;2022-10-16T09:05:54;69.75;;;59.30;;
12631;SDS011;6381;45.748;12.106;2022-10-16T09:08:50;72.85;;;57.80;;
12631;SDS011;6381;45.748;12.106;2022-10-16T09:11:33;72.97;;;59.20;;
12631;SDS011;6381;45.748;12.106;2022-10-16T09:14:16;74.13;;;58.75;;
12631;SDS011;6381;45.748;12.106;2022-10-16T09:17:11;65.78;;;57.35;;
12631;SDS011;6381;45.748;12.106;2022-10-16T09:19:51;69.05;;;56.97;;
12631;SDS011;6381;45.748;12.106;2022-10-16T09:22:27;66.35;;;57.10;;
12631;SDS011;6381;45.748;12.106;2022-10-16T09:24:59;62.25;;;54.03;;
12631;SDS011;6381;45.748;12.106;2022-10-16T09:27:38;64.38;;;53.95;;
12631;SDS011;6381;45.748;12.106;2022-10-16T09:30:11;66.13;;;56.88;;
12631;SDS011;6381;45.748;12.106;2022-10-16T09:32:42;65.35;;;55.78;;
12631;SDS011;6381;45.748;12.106;2022-10-16T09:35:13;69.00;;;58.08;;
12631;SDS011;6381;45.748;12.106;2022-10-16T09:37:45;70.70;;;58.83;;
12631;SDS011;6381;45.748;12.106;2022-10-16T09:40:28;62.83;;;55.03;;
12631;SDS011;6381;45.748;12.106;2022-10-16T09:43:01;63.30;;;54.40;;
12631;SDS011;6381;45.748;12.106;2022-10-16T09:45:35;67.40;;;56.45;;
12631;SDS011;6381;45.748;12.106;2022-10-16T09:48:10;69.82;;;57.42;;
12631;SDS011;6381;45.748;12.106;2022-10-16T09:50:40;66.22;;;54.10;;
12631;SDS011;6381;45.748;12.106;2022-10-16T09:53:11;69.85;;;58.28;;
12631;SDS011;6381;45.748;12.106;2022-10-16T09:55:50;68.20;;;57.47;;
12631;SDS011;6381;45.748;12.106;2022-10-16T09:58:21;66.95;;;55.38;;
12631;SDS011;6381;45.748;12.106;2022-10-16T10:00:52;64.45;;;53.45;;
12631;SDS011;6381;45.748;12.106;2022-10-16T10:03:30;63.13;;;50.22;;
12631;SDS011;6381;45.748;12.106;2022-10-16T10:06:06;61.75;;;52.45;;
12631;SDS011;6381;45.748;12.106;2022-10-16T10:08:54;63.47;;;53.17;;
12631;SDS011;6381;45.748;12.106;2022-10-16T10:11:39;62.83;;;53.58;;
12631;SDS011;6381;45.748;12.106;2022-10-16T10:17:09;55.90;;;48.28;;
12631;SDS011;6381;45.748;12.106;2022-10-16T10:19:41;59.08;;;51.47;;
12631;SDS011;6381;45.748;12.106;2022-10-16T10:22:22;61.00;;;52.90;;
12631;SDS011;6381;45.748;12.106;2022-10-16T10:24:54;65.15;;;50.78;;
12631;SDS011;6381;45.748;12.106;2022-10-16T10:27:28;61.30;;;50.05;;
12631;SDS011;6381;45.748;12.106;2022-10-16T10:30:05;58.80;;;50.00;;
12631;SDS011;6381;45.748;12.106;2022-10-16T10:32:40;65.15;;;50.22;;
12631;SDS011;6381;45.748;12.106;2022-10-16T10:35:22;57.78;;;47.88;;
12631;SDS011;6381;45.748;12.106;2022-10-16T10:38:02;57.63;;;46.97;;
12631;SDS011;6381;45.748;12.106;2022-10-16T10:40:45;58.25;;;46.83;;
12631;SDS011;6381;45.748;12.106;2022-10-16T10:43:28;60.42;;;51.17;;
12631;SDS011;6381;45.748;12.106;2022-10-16T10:46:09;58.47;;;47.70;;
12631;SDS011;6381;45.748;12.106;2022-10-16T10:48:58;58.80;;;48.60;;
12631;SDS011;6381;45.748;12.106;2022-10-16T10:51:44;53.58;;;44.40;;
12631;SDS011;6381;45.748;12.106;2022-10-16T10:54:22;51.78;;;43.70;;
12631;SDS011;6381;45.748;12.106;2022-10-16T10:57:02;50.05;;;42.92;;
12631;SDS011;6381;45.748;12.106;2022-10-16T11:02:33;47.97;;;41.95;;
12631;SDS011;6381;45.748;12.106;2022-10-16T11:05:24;48.70;;;40.45;;
12631;SDS011;6381;45.748;12.106;2022-10-16T11:08:11;44.88;;;33.83;;
12631;SDS011;6381;45.748;12.106;2022-10-16T11:10:48;41.60;;;36.92;;
12631;SDS011;6381;45.748;12.106;2022-10-16T11:13:24;40.03;;;33.70;;
12631;SDS011;6381;45.748;12.106;2022-10-16T11:16:01;121.07;;;98.90;;
12631;SDS011;6381;45.748;12.106;2022-10-16T11:18:40;37.03;;;32.35;;
12631;SDS011;6381;45.748;12.106;2022-10-16T11:21:16;44.05;;;37.28;;
12631;SDS011;6381;45.748;12.106;2022-10-16T11:23:49;41.83;;;33.58;;
12631;SDS011;6381;45.748;12.106;2022-10-16T11:26:23;41.03;;;35.05;;
12631;SDS011;6381;45.748;12.106;2022-10-16T11:28:55;48.28;;;40.13;;
12631;SDS011;6381;45.748;12.106;2022-10-16T11:31:29;46.22;;;38.45;;
12631;SDS011;6381;45.748;12.106;2022-10-16T11:34:06;46.58;;;37.63;;
12631;SDS011;6381;45.748;12.106;2022-10-16T11:36:46;39.78;;;34.30;;
12631;SDS011;6381;45.748;12.106;2022-10-16T11:39:20;41.65;;;33.80;;
12631;SDS011;6381;45.748;12.106;2022-10-16T11:41:51;40.95;;;34.40;;
12631;SDS011;6381;45.748;12.106;2022-10-16T11:44:32;41.00;;;34.70;;
12631;SDS011;6381;45.748;12.106;2022-10-16T11:47:23;40.03;;;33.25;;
12631;SDS011;6381;45.748;12.106;2022-10-16T11:50:18;38.78;;;34.38;;
12631;SDS011;6381;45.748;12.106;2022-10-16T11:52:53;39.95;;;34.50;;
12631;SDS011;6381;45.748;12.106;2022-10-16T11:55:28;37.30;;;33.15;;
12631;SDS011;6381;45.748;12.106;2022-10-16T11:58:03;36.95;;;31.25;;
12631;SDS011;6381;45.748;12.106;2022-10-16T12:00:37;40.55;;;32.80;;
12631;SDS011;6381;45.748;12.106;2022-10-16T12:03:17;39.33;;;33.83;;
12631;SDS011;6381;45.748;12.106;2022-10-16T12:05:56;34.90;;;29.75;;
12631;SDS011;6381;45.748;12.106;2022-10-16T12:08:32;37.38;;;32.92;;
12631;SDS011;6381;45.748;12.106;2022-10-16T12:11:08;36.60;;;32.70;;
12631;SDS011;6381;45.748;12.106;2022-10-16T12:13:48;39.75;;;35.60;;
12631;SDS011;6381;45.748;12.106;2022-10-16T12:16:21;39.45;;;32.97;;
12631;SDS011;6381;45.748;12.106;2022-10-16T12:21:41;31.13;;;27.77;;
12631;SDS011;6381;45.748;12.106;2022-10-16T12:24:20;32.17;;;28.50;;
12631;SDS011;6381;45.748;12.106;2022-10-16T12:26:55;36.08;;;30.35;;
12631;SDS011;6381;45.748;12.106;2022-10-16T12:29:30;36.22;;;32.22;;
12631;SDS011;6381;45.748;12.106;2022-10-16T12:32:03;39.28;;;31.75;;
12631;SDS011;6381;45.748;12.106;2022-10-16T12:34:39;33.30;;;29.75;;
12631;SDS011;6381;45.748;12.106;2022-10-16T12:37:13;39.95;;;32.40;;
12631;SDS011;6381;45.748;12.106;2022-10-16T12:39:47;42.60;;;35.60;;
12631;SDS011;6381;45.748;12.106;2022-10-16T12:42:21;38.50;;;32.13;;
12631;SDS011;6381;45.748;12.106;2022-10-16T12:44:53;37.70;;;33.75;;
12631;SDS011;6381;45.748;12.106;2022-10-16T12:47:23;41.85;;;34.67;;
12631;SDS011;6381;45.748;12.106;2022-10-16T12:52:59;41.03;;;33.85;;
12631;SDS011;6381;45.748;12.106;2022-10-16T12:55:31;44.95;;;37.25;;
12631;SDS011;6381;45.748;12.106;2022-10-16T12:58:12;42.50;;;37.20;;
12631;SDS011;6381;45.748;12.106;2022-10-16T13:00:54;44.75;;;37.90;;
12631;SDS011;6381;45.748;12.106;2022-10-16T13:03:34;39.10;;;34.85;;
12631;SDS011;6381;45.748;12.106;2022-10-16T13:06:36;44.83;;;36.05;;
12631;SDS011;6381;45.748;12.106;2022-10-16T13:12:18;39.92;;;35.50;;
12631;SDS011;6381;45.748;12.106;2022-10-16T13:15:14;41.80;;;37.05;;
12631;SDS011;6381;45.748;12.106;2022-10-16T13:18:08;41.55;;;37.20;;
12631;SDS011;6381;45.748;12.106;2022-10-16T13:20:59;39.30;;;35.15;;
12631;SDS011;6381;45.748;12.106;2022-10-16T13:23:54;39.13;;;34.75;;
12631;SDS011;6381;45.748;12.106;2022-10-16T13:26:33;40.17;;;35.80;;
12631;SDS011;6381;45.748;12.106;2022-10-16T13:29:17;38.45;;;33.92;;
12631;SDS011;6381;45.748;12.106;2022-10-16T13:32:06;36.80;;;32.33;;
12631;SDS011;6381;45.748;12.106;2022-10-16T13:34:43;38.10;;;33.60;;
12631;SDS011;6381;45.748;12.106;2022-10-16T13:37:17;36.67;;;30.85;;
12631;SDS011;6381;45.748;12.106;2022-10-16T13:39:49;35.25;;;31.48;;
12631;SDS011;6381;45.748;12.106;2022-10-16T13:42:20;36.58;;;31.70;;
12631;SDS011;6381;45.748;12.106;2022-10-16T13:44:54;37.40;;;31.77;;
12631;SDS011;6381;45.748;12.106;2022-10-16T13:47:24;38.55;;;33.65;;
12631;SDS011;6381;45.748;12.106;2022-10-16T13:50:02;37.65;;;33.55;;
12631;SDS011;6381;45.748;12.106;2022-10-16T13:52:36;41.10;;;36.63;;
12631;SDS011;6381;45.748;12.106;2022-10-16T13:55:17;37.53;;;33.38;;
12631;SDS011;6381;45.748;12.106;2022-10-16T13:58:06;37.97;;;33.33;;
12631;SDS011;6381;45.748;12.106;2022-10-16T14:00:37;35.15;;;31.38;;
12631;SDS011;6381;45.748;12.106;2022-10-16T14:03:07;41.70;;;33.80;;
12631;SDS011;6381;45.748;12.106;2022-10-16T14:05:42;37.28;;;32.65;;
12631;SDS011;6381;45.748;12.106;2022-10-16T14:08:15;38.28;;;33.78;;
12631;SDS011;6381;45.748;12.106;2022-10-16T14:10:48;44.78;;;35.53;;
12631;SDS011;6381;45.748;12.106;2022-10-16T14:13:19;39.95;;;35.60;;
12631;SDS011;6381;45.748;12.106;2022-10-16T14:15:54;36.40;;;32.53;;
12631;SDS011;6381;45.748;12.106;2022-10-16T14:18:25;35.90;;;31.98;;
12631;SDS011;6381;45.748;12.106;2022-10-16T14:21:05;38.72;;;33.50;;
12631;SDS011;6381;45.748;12.106;2022-10-16T14:23:35;37.83;;;33.85;;
12631;SDS011;6381;45.748;12.106;2022-10-16T14:26:14;35.58;;;31.08;;
12631;SDS011;6381;45.748;12.106;2022-10-16T14:28:46;35.30;;;31.67;;
12631;SDS011;6381;45.748;12.106;2022-10-16T14:31:26;42.60;;;34.05;;
12631;SDS011;6381;45.748;12.106;2022-10-16T14:33:57;39.00;;;34.78;;
12631;SDS011;6381;45.748;12.106;2022-10-16T14:36:27;36.58;;;32.15;;
12631;SDS011;6381;45.748;12.106;2022-10-16T14:39:01;39.13;;;34.53;;
12631;SDS011;6381;45.748;12.106;2022-10-16T14:41:40;37.22;;;33.22;;
12631;SDS011;6381;45.748;12.106;2022-10-16T14:44:12;38.97;;;31.80;;
12631;SDS011;6381;45.748;12.106;2022-10-16T14:46:47;32.58;;;29.05;;
12631;SDS011;6381;45.748;12.106;2022-10-16T14:49:17;36.30;;;32.35;;
12631;SDS011;6381;45.748;12.106;2022-10-16T14:51:48;36.60;;;32.70;;
12631;SDS011;6381;45.748;12.106;2022-10-16T14:54:18;36.83;;;32.85;;
12631;SDS011;6381;45.748;12.106;2022-10-16T14:56:50;37.30;;;33.05;;
12631;SDS011;6381;45.748;12.106;2022-10-16T14:59:23;37.75;;;33.65;;
12631;SDS011;6381;45.748;12.106;2022-10-16T15:01:55;38.28;;;33.75;;
12631;SDS011;6381;45.748;12.106;2022-10-16T15:04:25;36.13;;;32.20;;
12631;SDS011;6381;45.748;12.106;2022-10-16T15:06:54;36.13;;;32.33;;
12631;SDS011;6381;45.748;12.106;2022-10-16T15:09:23;35.40;;;31.60;;
12631;SDS011;6381;45.748;12.106;2022-10-16T15:11:54;35.55;;;31.73;;
12631;SDS011;6381;45.748;12.106;2022-10-16T15:14:23;38.60;;;34.45;;